Time;durP1;ratioP1;P1;durP2;ratioP2;P2;SDS_P1;SDS_P2;PMS_P1;PMS_P2;Temp;Humidity;BMP_temperature;BMP_pressure;BME280_temperature;BME280_humidity;BME280_pressure;Samples;Min_cycle;Max_cycle;Signal;HPM_P1;HPM_P2
2022/02/22 00:01:27;;;;;;;2.52;1.20;;;;;;;3.43;74.90;98888.97;1756932;81;22653;-73
2022/02/22 00:03:54;;;;;;;2.30;1.12;;;;;;;3.43;74.92;98901.10;1788633;80;21026;-74
2022/02/22 00:06:20;;;;;;;3.37;0.80;;;;;;;3.42;74.99;98909.77;1757486;81;20962;-74
2022/02/22 00:08:47;;;;;;;2.10;1.00;;;;;;;3.41;74.95;98916.67;1788505;80;21061;-74
2022/02/22 00:11:13;;;;;;;1.85;0.90;;;;;;;3.41;75.04;98927.50;1757337;81;21100;-74
2022/02/22 00:13:40;;;;;;;3.00;1.40;;;;;;;3.39;75.05;98933.96;1788387;80;21774;-74
2022/02/22 00:16:07;;;;;;;1.72;1.02;;;;;;;3.40;75.07;98953.07;1757354;81;21543;-74
2022/02/22 00:18:33;;;;;;;8.45;3.77;;;;;;;3.36;74.99;98951.20;1788639;80;21101;-74
2022/02/22 00:21:00;;;;;;;5.12;2.15;;;;;;;3.31;75.05;98950.68;1757377;81;21621;-74
2022/02/22 00:23:27;;;;;;;3.35;1.70;;;;;;;3.27;75.05;98962.28;1788898;80;21034;-74
2022/02/22 00:25:53;;;;;;;2.83;1.40;;;;;;;3.22;75.01;98964.75;1757533;81;22599;-74
2022/02/22 00:28:20;;;;;;;2.47;1.17;;;;;;;3.18;74.88;98968.11;1788760;80;21023;-74
2022/02/22 00:30:48;;;;;;;3.35;1.25;;;;;;;3.17;74.92;98978.47;1756781;81;21037;-74
2022/02/22 00:33:15;;;;;;;4.12;1.07;;;;;;;3.13;74.68;98990.93;1753066;81;21051;-74
2022/02/22 00:35:42;;;;;;;2.05;1.07;;;;;;;3.06;74.68;98997.27;1788417;79;21480;-74
2022/02/22 00:38:08;;;;;;;5.67;1.70;;;;;;;3.09;74.84;98999.06;1757252;81;21757;-74
2022/02/22 00:40:35;;;;;;;6.15;2.87;;;;;;;3.08;74.84;99007.30;1788147;80;21086;-74
2022/02/22 00:43:02;;;;;;;3.58;1.40;;;;;;;3.08;74.85;99007.72;1757160;81;21181;-74
2022/02/22 00:45:29;;;;;;;4.53;0.90;;;;;;;3.06;74.71;99018.47;1788411;80;21029;-73
2022/02/22 00:47:55;;;;;;;4.90;2.98;;;;;;;3.04;74.72;99017.55;1757100;81;21064;-73
2022/02/22 00:50:22;;;;;;;2.87;1.30;;;;;;;3.03;74.69;99015.80;1788577;80;21759;-73
2022/02/22 00:52:49;;;;;;;4.75;1.00;;;;;;;3.03;74.68;99029.67;1757188;81;21076;-73
2022/02/22 00:55:15;;;;;;;3.35;0.95;;;;;;;3.01;74.53;99029.19;1788470;80;21067;-74
2022/02/22 00:57:43;;;;;;;4.85;0.95;;;;;;;3.03;74.50;99035.30;1756768;80;21081;-74
2022/02/22 01:00:11;;;;;;;3.77;1.52;;;;;;;3.03;74.41;99040.50;1788143;80;21089;-74
2022/02/22 01:02:38;;;;;;;3.80;1.00;;;;;;;3.02;74.42;99053.92;1757488;81;21801;-73
2022/02/22 01:05:06;;;;;;;2.70;1.00;;;;;;;3.01;74.29;99065.14;1788770;80;21042;-74
2022/02/22 01:07:33;;;;;;;3.65;0.90;;;;;;;3.00;74.21;99071.59;1757102;81;21048;-74
2022/02/22 01:09:59;;;;;;;3.17;0.90;;;;;;;2.96;73.99;99075.83;1788478;80;21112;-74
2022/02/22 01:12:26;;;;;;;1.92;0.88;;;;;;;2.95;74.04;99078.37;1757487;81;20982;-74
2022/02/22 01:14:53;;;;;;;4.22;1.00;;;;;;;2.95;74.00;99073.17;1788455;80;22610;-74
2022/02/22 01:17:19;;;;;;;3.67;0.90;;;;;;;2.94;73.83;99088.33;1757117;81;21681;-74
2022/02/22 01:19:46;;;;;;;3.92;1.12;;;;;;;2.91;73.72;99082.63;1788343;80;21050;-74
2022/02/22 01:22:13;;;;;;;7.58;1.77;;;;;;;2.90;73.62;99096.02;1757042;81;21068;-74
2022/02/22 01:24:40;;;;;;;3.55;1.07;;;;;;;2.91;73.67;99103.00;1788198;80;21105;-74
2022/02/22 01:27:06;;;;;;;2.92;1.40;;;;;;;2.91;73.60;99095.20;1757278;81;21761;-74
2022/02/22 01:29:33;;;;;;;0.80;0.80;;;;;;;2.92;73.57;99109.94;1788615;80;20983;-74
2022/02/22 01:31:59;;;;;;;0.95;0.80;;;;;;;2.91;73.59;99121.61;1757507;81;21636;-74
2022/02/22 01:34:26;;;;;;;3.62;1.12;;;;;;;2.80;73.61;99130.38;1788450;80;21305;-74
2022/02/22 01:36:53;;;;;;;3.40;1.00;;;;;;;2.70;73.80;99128.33;1757112;81;21112;-74
2022/02/22 01:39:19;;;;;;;2.00;1.07;;;;;;;2.64;73.87;99145.03;1788484;80;21688;-74
2022/02/22 01:41:46;;;;;;;2.05;0.85;;;;;;;2.62;73.96;99145.41;1757035;81;21116;-74
2022/02/22 01:44:16;;;;;;;3.42;0.93;;;;;;;2.62;74.22;99148.00;1788501;80;21587;-74
2022/02/22 01:46:57;;;;;;;3.72;1.00;;;;;;;2.64;74.23;99151.10;1757375;81;21507;-73
2022/02/22 01:49:23;;;;;;;0.88;0.80;;;;;;;2.69;74.21;99151.27;1763333;80;21084;-73
2022/02/22 01:51:51;;;;;;;2.42;0.90;;;;;;;2.72;74.14;99165.63;1756742;81;50307;-73
2022/02/22 01:54:20;;;;;;;3.92;1.35;;;;;;;2.72;74.15;99165.63;1788280;80;21029;-74
2022/02/22 01:56:47;;;;;;;2.62;1.07;;;;;;;2.74;74.29;99183.47;1757410;81;21693;-74
2022/02/22 01:59:14;;;;;;;4.15;1.47;;;;;;;2.74;74.27;99184.77;1791809;80;21053;-74
2022/02/22 02:01:40;;;;;;;2.70;1.20;;;;;;;2.70;74.20;99188.98;1760588;81;21579;-74
2022/02/22 02:04:07;;;;;;;2.52;1.00;;;;;;;2.66;74.19;99189.70;1792292;80;21718;-74
2022/02/22 02:06:34;;;;;;;2.33;1.10;;;;;;;2.65;74.20;99188.38;1760688;81;21053;-74
2022/02/22 02:09:01;;;;;;;1.35;0.98;;;;;;;2.62;74.06;99190.87;1791976;79;21057;-74
2022/02/22 02:11:27;;;;;;;2.45;0.90;;;;;;;2.60;74.04;99200.33;1760689;81;21494;-74
2022/02/22 02:13:54;;;;;;;3.70;0.78;;;;;;;2.61;73.99;99207.27;1792118;80;21092;-74
2022/02/22 02:16:21;;;;;;;2.45;0.85;;;;;;;2.63;73.79;99209.53;1760749;81;22660;-74
2022/02/22 02:18:47;;;;;;;1.52;0.70;;;;;;;2.63;73.82;99215.60;1791805;80;21026;-74
2022/02/22 02:21:14;;;;;;;1.92;0.85;;;;;;;2.61;73.59;99220.26;1760538;81;21563;-74
2022/02/22 02:23:41;;;;;;;3.17;0.90;;;;;;;2.60;73.47;99232.80;1791892;80;21025;-74
2022/02/22 02:26:07;;;;;;;1.27;0.80;;;;;;;2.60;73.54;99242.77;1760685;81;21092;-74
2022/02/22 02:28:34;;;;;;;0.90;0.57;;;;;;;2.62;73.54;99252.78;1792178;79;21733;-74
2022/02/22 02:31:00;;;;;;;2.10;0.72;;;;;;;2.58;73.77;99252.66;1760361;81;21430;-73
2022/02/22 02:33:27;;;;;;;2.45;1.00;;;;;;;2.49;73.97;99263.19;1791912;79;21093;-73
2022/02/22 02:35:54;;;;;;;1.95;1.00;;;;;;;2.34;74.24;99268.74;1760752;81;21052;-73
2022/02/22 02:38:20;;;;;;;1.70;0.98;;;;;;;2.27;74.62;99289.25;1792039;79;21078;-74
2022/02/22 02:40:47;;;;;;;2.67;1.12;;;;;;;2.18;74.88;99292.83;1760582;81;21754;-74
2022/02/22 02:43:13;;;;;;;3.00;0.93;;;;;;;2.11;75.17;99281.36;1791821;79;21029;-74
2022/02/22 02:45:40;;;;;;;3.12;1.12;;;;;;;2.05;75.37;99297.61;1760497;81;21050;-74
2022/02/22 02:48:07;;;;;;;3.05;1.50;;;;;;;2.01;75.58;99303.91;1791997;79;21049;-74
2022/02/22 02:50:34;;;;;;;5.67;1.27;;;;;;;2.00;75.84;99305.63;1760616;81;22312;-74
2022/02/22 02:53:01;;;;;;;5.67;1.20;;;;;;;2.01;75.92;99315.20;1767535;80;21829;-74
2022/02/22 02:55:27;;;;;;;4.65;1.47;;;;;;;2.04;76.00;99315.29;1760930;81;21041;-74
2022/02/22 02:57:54;;;;;;;1.85;1.07;;;;;;;2.06;76.07;99313.63;1774470;79;21647;-74
2022/02/22 03:00:21;;;;;;;3.52;1.05;;;;;;;2.07;76.15;99318.43;1729956;82;21773;-74
2022/02/22 03:02:47;;;;;;;4.92;1.32;;;;;;;2.08;76.14;99322.39;1730210;82;21114;-74
2022/02/22 03:05:14;;;;;;;2.22;1.10;;;;;;;2.10;76.01;99339.28;1730383;82;21714;-74
2022/02/22 03:07:40;;;;;;;3.10;1.20;;;;;;;2.13;76.00;99343.30;1730028;82;21446;-74
2022/02/22 03:10:08;;;;;;;3.27;1.30;;;;;;;2.16;76.10;99355.49;1730267;82;21094;-74
2022/02/22 03:12:35;;;;;;;3.95;0.80;;;;;;;2.20;76.06;99361.29;1738847;82;21043;-75
2022/02/22 03:15:02;;;;;;;5.25;1.40;;;;;;;2.16;75.94;99364.58;1738813;82;21572;-74
2022/02/22 03:17:28;;;;;;;2.37;1.10;;;;;;;2.16;76.02;99377.17;1738762;82;21726;-75
2022/02/22 03:19:55;;;;;;;1.35;1.10;;;;;;;2.17;76.02;99376.74;1738539;82;21323;-74
2022/02/22 03:22:21;;;;;;;3.67;1.12;;;;;;;2.17;75.98;99387.12;1738642;81;21043;-74
2022/02/22 03:24:48;;;;;;;2.33;0.93;;;;;;;2.18;75.96;99391.48;1738595;82;21118;-74
2022/02/22 03:27:15;;;;;;;1.60;0.88;;;;;;;2.19;75.89;99398.03;1738511;82;21097;-74
2022/02/22 03:29:43;;;;;;;3.27;1.10;;;;;;;2.19;75.79;99404.94;1738607;82;21761;-74
2022/02/22 03:32:10;;;;;;;2.37;0.78;;;;;;;2.20;75.74;99417.11;1738540;82;21000;-74
2022/02/22 03:34:36;;;;;;;2.77;1.05;;;;;;;2.20;75.58;99417.98;1738537;82;21184;-74
2022/02/22 03:37:03;;;;;;;2.33;1.07;;;;;;;2.20;75.37;99433.98;1738586;81;21588;-74
2022/02/22 03:39:30;;;;;;;2.67;0.98;;;;;;;2.20;75.37;99430.09;1738726;82;21623;-74
2022/02/22 03:41:57;;;;;;;3.60;1.27;;;;;;;2.20;75.12;99440.05;1738763;82;21830;-74
2022/02/22 03:44:23;;;;;;;1.02;0.75;;;;;;;2.22;74.79;99433.20;1738849;82;21043;-74
2022/02/22 03:46:50;;;;;;;2.92;0.90;;;;;;;2.25;74.73;99459.67;1738739;82;21038;-74
2022/02/22 03:49:17;;;;;;;2.10;0.90;;;;;;;2.24;74.69;99450.14;1738698;82;21078;-74
2022/02/22 03:51:43;;;;;;;2.15;0.80;;;;;;;2.22;74.44;99466.08;1738732;82;21528;-73
2022/02/22 03:54:10;;;;;;;3.58;1.00;;;;;;;2.20;74.25;99470.33;1738694;82;21050;-74
2022/02/22 03:56:37;;;;;;;5.20;1.07;;;;;;;2.22;74.24;99479.94;1738692;82;21051;-74
2022/02/22 03:59:03;;;;;;;1.72;0.85;;;;;;;2.26;74.23;99485.70;1762094;81;21564;-74
2022/02/22 04:01:30;;;;;;;2.35;1.20;;;;;;;2.28;74.05;99497.03;1788284;80;21080;-74
2022/02/22 04:03:57;;;;;;;3.67;0.95;;;;;;;2.31;74.00;99503.65;1760886;81;21065;-74
2022/02/22 04:06:23;;;;;;;3.37;1.20;;;;;;;2.34;73.93;99505.04;1788814;79;21689;-74
2022/02/22 04:08:50;;;;;;;3.45;1.10;;;;;;;2.38;74.00;99512.95;1760622;81;21121;-74
2022/02/22 04:11:17;;;;;;;3.20;0.93;;;;;;;2.40;73.94;99529.05;1788671;79;21037;-74
2022/02/22 04:13:43;;;;;;;1.90;0.98;;;;;;;2.42;74.08;99531.72;1760830;81;21043;-73
2022/02/22 04:16:10;;;;;;;2.50;1.10;;;;;;;2.42;74.19;99539.52;1788520;80;21025;-73
2022/02/22 04:18:36;;;;;;;3.12;1.37;;;;;;;2.37;74.27;99547.14;1760571;81;22567;-73
2022/02/22 04:21:03;;;;;;;4.87;1.90;;;;;;;2.32;74.35;99548.25;1788247;79;21046;-74
2022/02/22 04:23:30;;;;;;;11.38;5.22;;;;;;;2.31;74.54;99553.41;1788365;80;20976;-74
2022/02/22 04:25:56;;;;;;;7.47;5.87;;;;;;;2.30;74.61;99553.80;1757158;81;21025;-75
2022/02/22 04:28:23;;;;;;;4.95;2.15;;;;;;;2.30;74.63;99555.09;1788604;80;21073;-74
2022/02/22 04:30:50;;;;;;;20.37;10.05;;;;;;;2.31;74.56;99568.98;1757165;81;21833;-74
2022/02/22 04:33:18;;;;;;;4.72;2.80;;;;;;;2.31;74.58;99575.05;1788550;80;21018;-74
2022/02/22 04:35:44;;;;;;;5.00;2.25;;;;;;;2.30;74.41;99571.09;1757378;81;21049;-74
2022/02/22 04:38:11;;;;;;;4.45;1.62;;;;;;;2.30;74.36;99582.78;1788691;79;20967;-73
2022/02/22 04:40:38;;;;;;;4.35;1.60;;;;;;;2.30;74.35;99579.77;1757433;81;22275;-74
2022/02/22 04:43:05;;;;;;;4.95;1.50;;;;;;;2.33;74.42;99589.41;1788652;80;21758;-74
2022/02/22 04:45:31;;;;;;;5.25;1.22;;;;;;;2.33;74.47;99595.89;1729492;81;21100;-74
2022/02/22 04:47:58;;;;;;;1.98;1.12;;;;;;;2.33;74.37;99603.27;1788556;80;21026;-74
2022/02/22 04:50:25;;;;;;;4.97;0.98;;;;;;;2.35;74.47;99604.63;1757455;81;21001;-74
2022/02/22 04:52:51;;;;;;;2.65;1.55;;;;;;;2.36;74.47;99614.59;1788861;80;21456;-74
2022/02/22 04:55:19;;;;;;;3.50;1.70;;;;;;;2.36;74.46;99623.69;1757658;81;21744;-73
2022/02/22 04:57:46;;;;;;;3.30;1.30;;;;;;;2.33;74.54;99624.04;1787036;78;20978;-78
2022/02/22 05:00:14;;;;;;;4.78;1.40;;;;;;;2.21;74.64;99614.87;1793321;79;20967;-79
2022/02/22 05:02:41;;;;;;;1.50;1.02;;;;;;;2.30;74.75;99630.40;1792994;80;21528;-78
2022/02/22 05:05:09;;;;;;;2.55;1.20;;;;;;;2.29;74.78;99633.84;1758386;80;21352;-80
2022/02/22 05:07:35;;;;;;;4.33;1.70;;;;;;;2.28;74.79;99629.88;1730179;81;22676;-79
2022/02/22 05:10:02;;;;;;;4.85;1.57;;;;;;;2.27;74.69;99642.37;1757888;81;21019;-79
2022/02/22 05:12:29;;;;;;;2.92;1.55;;;;;;;2.26;74.47;99647.98;1758244;81;21105;-79
2022/02/22 05:14:55;;;;;;;4.85;1.60;;;;;;;2.25;74.41;99658.30;1758210;80;21125;-79
2022/02/22 05:17:25;;;;;;;4.65;1.95;;;;;;;2.22;74.11;99663.39;1758249;81;21109;-90
2022/02/22 05:19:52;;;;;;;4.25;2.10;;;;;;;2.22;74.24;99667.28;1758828;80;21811;-86
2022/02/22 05:22:18;;;;;;;4.33;1.80;;;;;;;2.20;74.15;99665.05;1759173;81;21765;-86
2022/02/22 05:24:45;;;;;;;3.40;1.57;;;;;;;2.19;74.20;99671.04;1758669;81;21062;-78
2022/02/22 05:27:12;;;;;;;4.53;1.67;;;;;;;2.20;74.30;99680.20;1758167;80;21050;-78
2022/02/22 05:29:39;;;;;;;3.72;1.47;;;;;;;2.23;74.28;99680.30;1758083;80;21575;-77
2022/02/22 05:32:06;;;;;;;5.40;1.67;;;;;;;2.24;74.22;99687.70;1772740;80;22429;-77
2022/02/22 05:34:36;;;;;;;4.40;1.60;;;;;;;2.27;74.23;99693.91;1792892;78;21153;-77
2022/02/22 05:37:03;;;;;;;5.33;1.72;;;;;;;2.29;74.29;99708.23;1793304;78;21073;-79
2022/02/22 05:39:30;;;;;;;6.37;1.65;;;;;;;2.28;74.27;99706.05;1793194;78;21087;-79
2022/02/22 05:41:57;;;;;;;5.53;1.87;;;;;;;2.27;74.27;99712.47;1793101;80;21103;-79
2022/02/22 05:44:23;;;;;;;2.55;1.50;;;;;;;2.20;74.25;99707.45;1793268;79;21366;-79
2022/02/22 05:46:50;;;;;;;2.90;1.50;;;;;;;2.27;74.35;99722.48;1792939;78;21010;-79
2022/02/22 05:49:16;;;;;;;6.87;1.50;;;;;;;2.27;74.15;99730.27;1753198;81;21040;-79
2022/02/22 05:51:43;;;;;;;3.40;1.65;;;;;;;2.27;73.93;99737.14;1793257;80;21065;-79
2022/02/22 05:54:10;;;;;;;3.27;1.50;;;;;;;2.24;73.97;99734.02;1793386;78;21122;-79
2022/02/22 05:56:36;;;;;;;4.90;2.58;;;;;;;2.25;74.04;99748.79;1793203;79;22376;-79
2022/02/22 05:59:03;;;;;;;3.77;1.80;;;;;;;2.24;74.28;99761.70;1792907;80;21164;-79
2022/02/22 06:01:33;;;;;;;4.78;1.95;;;;;;;2.19;75.38;99771.00;1793310;78;22301;-79
2022/02/22 06:03:58;;;;;;;7.15;2.17;;;;;;;2.14;75.78;99770.39;1792908;79;22179;-79
2022/02/22 06:06:25;;;;;;;4.20;1.90;;;;;;;2.14;75.92;99773.41;1793476;78;21041;-78
2022/02/22 06:08:52;;;;;;;2.45;1.65;;;;;;;2.16;76.14;99782.15;1793375;78;21842;-78
2022/02/22 06:11:18;;;;;;;6.05;1.98;;;;;;;2.14;75.62;99788.56;1793263;78;21108;-79
2022/02/22 06:13:45;;;;;;;3.75;1.60;;;;;;;2.14;75.06;99792.88;1793189;79;21035;-79
2022/02/22 06:16:12;;;;;;;3.10;1.80;;;;;;;2.14;74.56;99797.66;1793085;78;21098;-79
2022/02/22 06:18:38;;;;;;;3.67;1.80;;;;;;;2.18;74.09;99802.57;1793131;79;21517;-79
2022/02/22 06:21:05;;;;;;;5.53;1.80;;;;;;;2.23;73.79;99805.34;1793056;80;21683;-79
2022/02/22 06:23:31;;;;;;;3.08;1.98;;;;;;;2.26;73.35;99814.16;1793077;78;21022;-80
2022/02/22 06:25:58;;;;;;;5.08;1.47;;;;;;;2.27;73.16;99822.44;1793177;79;21085;-79
2022/02/22 06:28:25;;;;;;;3.80;1.77;;;;;;;2.31;72.97;99828.66;1793621;78;21094;-79
2022/02/22 06:30:51;;;;;;;2.72;1.20;;;;;;;2.33;72.75;99843.89;1793380;79;21046;-79
2022/02/22 06:33:18;;;;;;;3.58;1.32;;;;;;;2.36;72.48;99847.02;1793368;78;21153;-79
2022/02/22 06:35:45;;;;;;;4.55;1.65;;;;;;;2.37;72.28;99851.41;1793219;79;21544;-80
2022/02/22 06:38:11;;;;;;;4.83;1.80;;;;;;;2.39;72.05;99862.75;1793281;80;21038;-79
2022/02/22 06:40:38;;;;;;;2.58;1.50;;;;;;;2.37;71.89;99876.96;1793424;80;21066;-79
2022/02/22 06:43:05;;;;;;;5.70;2.02;;;;;;;2.37;71.74;99878.67;1793356;78;21070;-79
2022/02/22 06:45:32;;;;;;;5.28;1.92;;;;;;;2.36;71.79;99871.27;1775531;80;21723;-79
2022/02/22 06:47:59;;;;;;;4.62;2.10;;;;;;;2.38;71.57;99890.83;1793076;80;21045;-79
2022/02/22 06:50:26;;;;;;;4.03;1.82;;;;;;;2.38;71.56;99894.72;1793437;78;21026;-79
2022/02/22 06:52:52;;;;;;;3.58;2.15;;;;;;;2.41;71.50;99900.94;1793402;80;21050;-79
2022/02/22 06:55:19;;;;;;;3.80;1.82;;;;;;;2.44;71.61;99909.27;1793297;80;21062;-79
2022/02/22 06:57:59;;;;;;;4.42;2.33;;;;;;;2.47;71.52;99922.40;1793335;79;21648;-80
2022/02/22 07:00:26;;;;;;;4.28;1.62;;;;;;;2.49;71.53;99921.63;1792853;78;21549;-79
2022/02/22 07:02:52;;;;;;;6.05;1.90;;;;;;;2.51;71.51;99926.91;1793180;78;20999;-80
2022/02/22 07:05:20;;;;;;;4.20;1.80;;;;;;;2.51;71.50;99935.58;1793313;80;21597;-80
2022/02/22 07:07:46;;;;;;;5.05;2.22;;;;;;;2.48;71.54;99931.56;1793169;78;21062;-79
2022/02/22 07:10:13;;;;;;;3.85;2.00;;;;;;;2.57;71.44;99951.84;1793219;78;21683;-80
2022/02/22 07:12:40;;;;;;;4.12;1.50;;;;;;;2.59;71.33;99949.31;1793456;78;21026;-79
2022/02/22 07:15:07;;;;;;;4.47;2.00;;;;;;;2.60;71.35;99956.30;1793542;78;21038;-79
2022/02/22 07:17:51;;;;;;;5.53;2.50;;;;;;;2.62;71.21;99963.33;1793498;79;21050;-79
2022/02/22 07:20:19;;;;;;;4.65;2.05;;;;;;;2.61;70.75;99964.56;1793397;78;21104;-79
2022/02/22 07:22:45;;;;;;;5.08;1.90;;;;;;;2.61;70.84;99976.25;1793170;79;22588;-79
2022/02/22 07:25:14;;;;;;;5.20;2.10;;;;;;;2.59;70.52;99989.59;1793206;78;21023;-79
2022/02/22 07:27:47;;;;;;;6.60;2.67;;;;;;;2.58;70.60;100004.30;1793162;78;21057;-79
2022/02/22 07:30:17;;;;;;;5.78;2.33;;;;;;;2.58;70.53;100004.30;1793496;78;21560;-80
2022/02/22 07:32:44;;;;;;;3.87;2.02;;;;;;;2.57;70.37;100010.30;1792979;78;21631;-79
2022/02/22 07:35:15;;;;;;;5.90;1.90;;;;;;;2.58;70.12;100008.61;1793135;78;22536;-79
2022/02/22 07:37:39;;;;;;;7.10;1.87;;;;;;;2.55;69.96;100022.33;1792744;79;21136;-79
2022/02/22 07:40:08;;;;;;;4.95;1.60;;;;;;;2.57;69.88;100038.88;1793194;78;21067;-79
2022/02/22 07:42:36;;;;;;;2.70;1.25;;;;;;;2.58;69.64;100039.38;1793139;79;20999;-79
2022/02/22 07:45:04;;;;;;;2.83;1.30;;;;;;;2.57;69.24;100040.59;1793222;80;21073;-79
2022/02/22 07:47:31;;;;;;;4.45;1.62;;;;;;;2.55;69.17;100040.52;1793214;78;22628;-79
2022/02/22 07:49:58;;;;;;;3.77;1.60;;;;;;;2.59;69.22;100041.55;1793206;80;21105;-79
2022/02/22 07:52:28;;;;;;;6.47;1.77;;;;;;;2.60;68.97;100050.72;1793343;78;20976;-79
2022/02/22 07:54:55;;;;;;;2.58;1.70;;;;;;;2.60;69.18;100057.22;1793168;78;21054;-79
2022/02/22 07:57:22;;;;;;;3.70;2.00;;;;;;;2.63;69.11;100046.09;1793413;78;21101;-79
2022/02/22 07:59:49;;;;;;;3.85;1.62;;;;;;;2.67;69.16;100054.08;1789122;78;21229;-79
2022/02/22 08:02:16;;;;;;;4.62;1.90;;;;;;;2.67;68.73;100063.17;1787231;78;20992;-79
2022/02/22 08:04:42;;;;;;;4.20;2.45;;;;;;;2.66;68.79;100076.97;1787326;79;21335;-79
2022/02/22 08:07:10;;;;;;;4.47;1.98;;;;;;;2.66;68.83;100071.77;1787349;78;21125;-79
2022/02/22 08:09:36;;;;;;;5.62;1.87;;;;;;;2.68;68.79;100088.36;1787205;78;21070;-79
2022/02/22 08:12:06;;;;;;;6.22;2.40;;;;;;;2.68;68.65;100092.25;1787182;79;22293;-79
2022/02/22 08:14:33;;;;;;;4.30;2.02;;;;;;;2.70;68.75;100094.89;1767418;80;21034;-79
2022/02/22 08:17:00;;;;;;;3.40;1.90;;;;;;;2.72;68.67;100096.77;1787192;78;21102;-79
2022/02/22 08:19:27;;;;;;;5.10;1.70;;;;;;;2.75;68.76;100093.41;1787299;79;21058;-79
2022/02/22 08:21:55;;;;;;;5.00;2.15;;;;;;;2.75;68.51;100107.70;1787306;78;21297;-79
2022/02/22 08:24:24;;;;;;;3.95;2.08;;;;;;;2.75;68.51;100109.00;1787321;78;21801;-79
2022/02/22 08:26:55;;;;;;;3.55;2.10;;;;;;;2.75;68.43;100112.02;1787231;78;21496;-79
2022/02/22 08:29:23;;;;;;;5.05;2.55;;;;;;;2.77;68.43;100115.57;1787347;79;21529;-79
2022/02/22 08:31:50;;;;;;;6.10;2.70;;;;;;;2.78;68.22;100126.43;1787186;78;21062;-79
2022/02/22 08:34:17;;;;;;;5.85;2.50;;;;;;;2.74;68.25;100126.73;1787225;79;21098;-79
2022/02/22 08:36:44;;;;;;;4.45;2.27;;;;;;;2.76;68.26;100132.88;1787226;79;21734;-79
2022/02/22 08:39:10;;;;;;;6.17;3.00;;;;;;;2.76;68.31;100135.48;1787218;79;21097;-79
2022/02/22 08:41:37;;;;;;;8.23;1.92;;;;;;;2.78;68.27;100144.23;1787029;79;21062;-79
2022/02/22 08:44:05;;;;;;;4.58;2.30;;;;;;;2.81;68.26;100144.36;1787331;78;21532;-79
2022/02/22 08:46:31;;;;;;;3.85;1.90;;;;;;;2.84;68.31;100146.23;1787382;78;21140;-79
2022/02/22 08:48:58;;;;;;;3.45;2.00;;;;;;;2.82;68.08;100143.97;1787221;80;21725;-78
2022/02/22 08:51:25;;;;;;;5.58;2.40;;;;;;;2.80;68.12;100143.02;1787251;80;21524;-79
2022/02/22 08:53:51;;;;;;;4.65;2.02;;;;;;;2.82;68.22;100150.05;1787366;80;21038;-79
2022/02/22 08:56:18;;;;;;;5.53;2.65;;;;;;;2.85;68.25;100167.48;1787369;78;21028;-79
2022/02/22 08:58:45;;;;;;;5.28;2.47;;;;;;;2.87;68.26;100171.05;1787246;80;21030;-79
2022/02/22 09:01:11;;;;;;;5.28;2.27;;;;;;;2.86;68.03;100174.48;1787153;80;22475;-79
2022/02/22 09:03:38;;;;;;;6.95;2.58;;;;;;;2.82;67.92;100192.94;1787222;79;21035;-79
2022/02/22 09:06:05;;;;;;;9.68;2.90;;;;;;;2.80;68.20;100195.88;1787193;78;21057;-79
2022/02/22 09:08:32;;;;;;;6.25;2.65;;;;;;;2.84;68.31;100191.30;1787403;80;20968;-79
2022/02/22 09:10:58;;;;;;;3.62;2.20;;;;;;;2.89;68.16;100198.00;1787246;78;21062;-79
2022/02/22 09:13:25;;;;;;;6.33;2.85;;;;;;;2.93;68.02;100202.55;1787346;80;21948;-79
2022/02/22 09:15:53;;;;;;;3.15;2.50;;;;;;;2.96;68.01;100198.77;1787199;80;21059;-79
2022/02/22 09:18:20;;;;;;;5.37;2.40;;;;;;;2.99;67.81;100214.94;1787431;78;21065;-79
2022/02/22 09:20:47;;;;;;;6.75;2.40;;;;;;;2.98;67.71;100198.84;1787127;78;21100;-79
2022/02/22 09:23:14;;;;;;;6.42;2.55;;;;;;;3.04;67.82;100215.64;1787223;79;21038;-79
2022/02/22 09:25:41;;;;;;;4.55;2.80;;;;;;;3.08;67.71;100228.38;1787080;79;21764;-79
2022/02/22 09:28:08;;;;;;;7.00;3.02;;;;;;;3.13;67.76;100235.95;1787168;78;21039;-79
2022/02/22 09:30:35;;;;;;;7.58;3.08;;;;;;;3.21;67.77;100242.42;1767282;80;21054;-79
2022/02/22 09:33:02;;;;;;;4.65;2.80;;;;;;;3.30;67.66;100245.45;1786983;79;21552;-79
2022/02/22 09:35:29;;;;;;;5.97;2.92;;;;;;;3.36;67.02;100251.34;1787149;79;21030;-79
2022/02/22 09:37:56;;;;;;;4.97;2.87;;;;;;;3.33;66.83;100262.89;1787064;78;21741;-79
2022/02/22 09:40:22;;;;;;;3.92;2.40;;;;;;;3.33;66.71;100256.39;1787297;80;21078;-79
2022/02/22 09:42:49;;;;;;;6.58;3.45;;;;;;;3.35;66.78;100256.05;1787336;79;21050;-79
2022/02/22 09:45:16;;;;;;;6.65;2.80;;;;;;;3.41;66.64;100261.53;1787301;80;21619;-79
2022/02/22 09:47:44;;;;;;;4.17;2.00;;;;;;;3.43;66.58;100265.09;1787265;80;21117;-79
2022/02/22 09:50:11;;;;;;;8.20;3.02;;;;;;;3.52;66.54;100271.55;1787303;79;21755;-79
2022/02/22 09:52:38;;;;;;;5.80;3.37;;;;;;;3.56;66.34;100281.27;1787224;79;21050;-79
2022/02/22 09:55:06;;;;;;;5.35;3.17;;;;;;;3.56;66.11;100281.27;1787327;78;21023;-79
2022/02/22 09:57:33;;;;;;;11.38;5.58;;;;;;;3.57;66.09;100280.05;1787325;78;21544;-79
2022/02/22 10:00:00;;;;;;;4.78;3.02;;;;;;;3.61;65.95;100291.07;1787137;78;21567;-80
2022/02/22 10:02:38;;;;;;;6.92;3.17;;;;;;;3.64;65.90;100292.52;1786915;78;21840;-79
2022/02/22 10:05:21;;;;;;;4.60;2.35;;;;;;;3.68;65.83;100299.64;1767123;80;21549;-79
2022/02/22 10:07:55;;;;;;;3.73;2.10;;;;;;;3.71;65.78;100306.69;1787466;80;21038;-79
2022/02/22 10:10:39;;;;;;;4.40;2.90;;;;;;;3.71;65.47;100310.59;1787332;79;21219;-78
2022/02/22 10:13:07;;;;;;;8.08;2.85;;;;;;;3.69;65.37;100321.34;1785407;78;21632;-78
2022/02/22 10:15:38;;;;;;;7.45;2.95;;;;;;;3.62;65.21;100327.09;1787138;78;21734;-79
2022/02/22 10:18:05;;;;;;;4.58;2.50;;;;;;;3.56;65.17;100330.30;1786980;78;21053;-79
2022/02/22 10:20:32;;;;;;;3.98;2.27;;;;;;;3.57;65.19;100336.41;1787248;80;21074;-79
2022/02/22 10:22:59;;;;;;;5.33;2.40;;;;;;;3.58;65.10;100338.18;1787071;80;21090;-80
2022/02/22 10:25:25;;;;;;;8.50;2.52;;;;;;;3.64;65.14;100346.27;1787210;78;21003;-79
2022/02/22 10:27:54;;;;;;;3.87;2.10;;;;;;;3.70;65.23;100349.17;1787195;78;21377;-79
2022/02/22 10:30:34;;;;;;;8.03;3.20;;;;;;;3.77;65.09;100350.33;1787178;78;21050;-79
2022/02/22 10:33:00;;;;;;;7.45;2.77;;;;;;;3.77;64.99;100355.11;1787385;78;21034;-79
2022/02/22 10:35:29;;;;;;;5.00;2.70;;;;;;;3.85;65.08;100358.09;1787233;78;20988;-79
2022/02/22 10:37:56;;;;;;;4.87;2.47;;;;;;;3.94;65.03;100358.91;1787550;79;21054;-79
2022/02/22 10:40:29;;;;;;;4.60;2.27;;;;;;;3.98;64.69;100360.82;1787475;79;22595;-79
2022/02/22 10:42:55;;;;;;;5.17;2.30;;;;;;;4.02;64.82;100362.34;1786591;78;21496;-79
2022/02/22 10:45:23;;;;;;;4.03;2.50;;;;;;;4.08;64.53;100363.91;1787392;79;21575;-79
2022/02/22 10:47:49;;;;;;;4.60;2.65;;;;;;;4.11;64.22;100363.56;1787228;78;21535;-79
2022/02/22 10:50:18;;;;;;;4.47;2.62;;;;;;;4.17;64.34;100379.50;1787298;78;21026;-79
2022/02/22 10:52:45;;;;;;;5.03;2.52;;;;;;;4.28;64.36;100376.95;1767177;80;22783;-79
2022/02/22 10:55:12;;;;;;;6.37;3.40;;;;;;;4.30;64.06;100374.00;1787470;78;21066;-79
2022/02/22 10:57:39;;;;;;;5.80;2.40;;;;;;;4.28;63.89;100380.86;1787338;80;21046;-79
2022/02/22 11:00:07;;;;;;;6.15;2.35;;;;;;;4.27;63.70;100384.27;1787132;80;20987;-80
2022/02/22 11:02:34;;;;;;;5.42;2.20;;;;;;;4.24;63.77;100386.34;1786775;78;21054;-79
2022/02/22 11:05:05;;;;;;;3.77;2.00;;;;;;;4.32;63.61;100389.67;1787092;79;21731;-79
2022/02/22 11:07:32;;;;;;;3.42;2.20;;;;;;;4.40;63.61;100394.41;1787039;80;21070;-79
2022/02/22 11:09:59;;;;;;;4.25;2.27;;;;;;;4.59;63.82;100397.41;1787000;78;21125;-79
2022/02/22 11:12:32;;;;;;;4.47;1.90;;;;;;;4.67;63.38;100399.95;1787077;79;21077;-79
2022/02/22 11:15:10;;;;;;;2.80;1.92;;;;;;;4.78;63.56;100400.81;1787357;78;21539;-79
2022/02/22 11:17:51;;;;;;;3.52;2.02;;;;;;;4.92;63.12;100393.55;1787070;79;21819;-79
2022/02/22 11:20:31;;;;;;;4.92;2.33;;;;;;;5.03;63.06;100400.11;1787387;79;21093;-79
2022/02/22 11:22:59;;;;;;;4.00;1.80;;;;;;;5.16;62.66;100405.42;1787174;79;21078;-79
2022/02/22 11:25:34;;;;;;;2.92;1.50;;;;;;;5.25;62.50;100422.77;1787299;79;20972;-79
2022/02/22 11:28:05;;;;;;;2.27;1.52;;;;;;;5.24;61.36;100423.61;1786511;78;21117;-79
2022/02/22 11:30:31;;;;;;;2.90;1.67;;;;;;;5.19;61.72;100425.13;1783837;79;21678;-79
2022/02/22 11:33:08;;;;;;;4.62;1.75;;;;;;;5.20;60.92;100433.42;1787142;79;21057;-79
2022/02/22 11:35:57;;;;;;;2.83;1.70;;;;;;;5.08;61.16;100431.62;1787466;79;21039;-79
2022/02/22 11:38:25;;;;;;;3.22;1.62;;;;;;;5.02;60.92;100437.47;1787320;78;21041;-79
2022/02/22 11:40:53;;;;;;;3.52;1.77;;;;;;;4.99;61.00;100436.03;1787407;79;21110;-79